Time;durP1;ratioP1;P1;durP2;ratioP2;P2;SDS_P1;SDS_P2;PMS_P1;PMS_P2;Temp;Humidity;BMP_temperature;BMP_pressure;BME280_temperature;BME280_humidity;BME280_pressure;Samples;Min_cycle;Max_cycle;Signal;HPM_P1;HPM_P2
2022/03/21 00:02:23;;;;;;;24.02;14.38;;;6.40;68.80;;;;;;6311048;22;20003;-65
2022/03/21 00:04:49;;;;;;;22.80;14.30;;;6.30;69.00;;;;;;6311272;22;20003;-66
2022/03/21 00:07:16;;;;;;;22.00;14.13;;;6.30;69.10;;;;;;6311039;22;20110;-65
2022/03/21 00:09:41;;;;;;;27.48;14.95;;;6.30;69.00;;;;;;6311226;22;20077;-67
2022/03/21 00:12:08;;;;;;;22.00;15.00;;;6.30;68.80;;;;;;6309608;22;20034;-66
2022/03/21 00:14:34;;;;;;;20.55;14.43;;;6.30;68.80;;;;;;6311215;22;20002;-66
2022/03/21 00:16:59;;;;;;;22.92;13.48;;;6.40;68.70;;;;;;6310969;22;20066;-66
2022/03/21 00:19:25;;;;;;;23.20;15.05;;;6.30;68.80;;;;;;6311390;22;20047;-66
2022/03/21 00:21:54;;;;;;;28.00;15.05;;;6.20;68.80;;;;;;6311311;22;20056;-66
2022/03/21 00:24:20;;;;;;;23.92;15.38;;;6.20;68.80;;;;;;6311298;22;19999;-66
2022/03/21 00:26:45;;;;;;;23.75;14.57;;;6.10;69.30;;;;;;6309213;22;20357;-66
2022/03/21 00:29:11;;;;;;;23.52;14.75;;;6.00;69.50;;;;;;6311105;22;19999;-66
2022/03/21 00:31:37;;;;;;;23.70;14.48;;;6.00;69.80;;;;;;6310809;22;20003;-66
2022/03/21 00:34:03;;;;;;;22.60;14.68;;;5.90;69.60;;;;;;6310937;22;19995;-67
2022/03/21 00:36:29;;;;;;;22.02;13.85;;;5.90;69.80;;;;;;6310720;22;20003;-66
2022/03/21 00:38:54;;;;;;;23.33;14.98;;;5.80;69.70;;;;;;6310766;22;20005;-66
2022/03/21 00:41:22;;;;;;;23.27;15.13;;;5.80;69.80;;;;;;6309503;22;20026;-66
2022/03/21 00:43:52;;;;;;;30.90;17.58;;;5.80;69.70;;;;;;6310872;22;20031;-66
2022/03/21 00:46:18;;;;;;;40.60;20.42;;;5.70;70.90;;;;;;6311103;22;20023;-67
2022/03/21 00:48:44;;;;;;;27.42;16.55;;;5.40;71.70;;;;;;6310406;22;20253;-66
2022/03/21 00:51:10;;;;;;;25.85;15.15;;;5.20;72.30;;;;;;6310650;22;20004;-67
2022/03/21 00:53:36;;;;;;;25.17;14.95;;;5.10;72.80;;;;;;6310130;22;20006;-66
2022/03/21 00:56:02;;;;;;;23.85;14.57;;;5.00;73.70;;;;;;6309063;22;20090;-66
2022/03/21 00:58:27;;;;;;;25.13;15.77;;;4.80;73.90;;;;;;6310144;22;20003;-66
2022/03/21 01:00:53;;;;;;;27.38;17.30;;;4.50;75.10;;;;;;6310732;22;20045;-66
2022/03/21 01:03:19;;;;;;;26.77;16.17;;;4.30;75.90;;;;;;6310539;22;20074;-66
2022/03/21 01:05:45;;;;;;;25.92;15.95;;;4.30;76.40;;;;;;6310559;22;20000;-66
2022/03/21 01:08:11;;;;;;;24.38;15.60;;;4.00;77.50;;;;;;6309933;22;20011;-66
2022/03/21 01:10:37;;;;;;;23.15;14.48;;;3.90;78.10;;;;;;6309003;22;20268;-66
2022/03/21 01:13:03;;;;;;;23.10;14.40;;;3.70;78.90;;;;;;6310488;22;20007;-65
2022/03/21 01:15:29;;;;;;;24.80;15.15;;;3.60;79.30;;;;;;6310558;22;20372;-67
2022/03/21 01:17:56;;;;;;;26.25;15.68;;;3.40;80.20;;;;;;6310158;22;20222;-66
2022/03/21 01:20:23;;;;;;;24.08;14.15;;;3.30;80.60;;;;;;6310644;22;19996;-66
2022/03/21 01:22:50;;;;;;;23.73;14.60;;;3.20;80.60;;;;;;6310399;22;20010;-66
2022/03/21 01:25:15;;;;;;;24.30;15.57;;;3.20;81.10;;;;;;6310858;22;20308;-66
2022/03/21 01:27:44;;;;;;;22.85;14.23;;;3.00;81.40;;;;;;6308554;22;20003;-66
2022/03/21 01:30:12;;;;;;;23.83;15.25;;;2.90;82.20;;;;;;6310421;22;20003;-66
2022/03/21 01:32:42;;;;;;;24.98;15.40;;;2.80;82.90;;;;;;6310460;22;20391;-65
2022/03/21 01:35:08;;;;;;;27.38;15.40;;;2.80;83.20;;;;;;6310448;22;20397;-65
2022/03/21 01:37:44;;;;;;;23.27;14.75;;;2.90;82.80;;;;;;6310294;22;20287;-65
2022/03/21 01:40:11;;;;;;;25.70;15.98;;;2.90;82.30;;;;;;6310101;22;19999;-65
2022/03/21 01:42:37;;;;;;;25.05;13.25;;;3.00;82.20;;;;;;6282122;22;20007;-67
2022/03/21 01:45:05;;;;;;;24.33;14.52;;;3.00;82.40;;;;;;6310457;22;20265;-66
2022/03/21 01:47:33;;;;;;;24.95;14.85;;;2.90;82.90;;;;;;6310336;22;19999;-67
2022/03/21 01:50:03;;;;;;;25.27;15.10;;;2.80;83.40;;;;;;6310239;22;20007;-66
2022/03/21 01:52:28;;;;;;;22.95;14.63;;;2.90;82.90;;;;;;6310345;22;19995;-66
2022/03/21 01:57:40;;;;;;;25.27;14.35;;;3.00;82.20;;;;;;6308422;22;20029;-66
2022/03/21 02:00:06;;;;;;;23.45;15.05;;;3.20;81.20;;;;;;6309885;22;20369;-66
2022/03/21 02:02:33;;;;;;;23.52;14.20;;;3.30;80.70;;;;;;6309920;22;20000;-66
2022/03/21 02:04:58;;;;;;;24.90;14.82;;;3.30;80.90;;;;;;6309878;22;20003;-66
2022/03/21 02:07:25;;;;;;;23.35;14.43;;;3.30;80.70;;;;;;6309811;22;20033;-66
2022/03/21 02:09:51;;;;;;;23.00;14.13;;;3.30;80.50;;;;;;6312024;22;20003;-66
2022/03/21 02:12:17;;;;;;;24.08;14.82;;;3.30;80.70;;;;;;6310786;22;20454;-66
2022/03/21 02:14:43;;;;;;;25.30;13.95;;;3.40;80.20;;;;;;6311550;22;20048;-66
2022/03/21 02:17:15;;;;;;;23.58;14.27;;;3.50;79.30;;;;;;6312084;22;20023;-66
2022/03/21 02:19:45;;;;;;;26.75;15.25;;;3.70;78.40;;;;;;6312035;22;20241;-66
2022/03/21 02:22:25;;;;;;;22.58;14.30;;;3.80;78.00;;;;;;6311775;22;20041;-66
2022/03/21 02:25:09;;;;;;;23.88;14.50;;;3.80;78.00;;;;;;6312320;22;20006;-66
2022/03/21 02:27:35;;;;;;;26.23;14.77;;;3.70;79.00;;;;;;6310560;22;19999;-67
2022/03/21 02:30:05;;;;;;;20.88;14.02;;;3.50;79.60;;;;;;6312177;22;20003;-66
2022/03/21 02:32:31;;;;;;;23.77;14.23;;;3.40;80.60;;;;;;6284462;22;20011;-67
2022/03/21 02:34:58;;;;;;;25.30;15.27;;;3.30;81.00;;;;;;6311712;22;20306;-66
2022/03/21 02:37:25;;;;;;;22.52;14.05;;;3.30;80.70;;;;;;6311557;22;20006;-67
2022/03/21 02:39:54;;;;;;;26.45;14.63;;;3.30;80.70;;;;;;6285108;22;20003;-67
2022/03/21 02:42:20;;;;;;;25.73;13.85;;;3.20;80.50;;;;;;6310305;22;20319;-66
2022/03/21 02:44:45;;;;;;;26.88;15.27;;;3.30;80.40;;;;;;6311675;22;20011;-66
2022/03/21 02:47:11;;;;;;;30.08;15.52;;;3.30;80.30;;;;;;6311963;22;20323;-66
2022/03/21 02:49:37;;;;;;;22.83;14.43;;;3.30;80.20;;;;;;6311648;22;19999;-66
2022/03/21 02:52:05;;;;;;;23.92;14.73;;;3.40;79.40;;;;;;6311503;22;19999;-66
2022/03/21 02:54:32;;;;;;;23.27;14.27;;;3.50;79.20;;;;;;6311017;22;20357;-67
2022/03/21 02:56:58;;;;;;;24.40;14.15;;;3.50;79.30;;;;;;6310102;22;20367;-66
2022/03/21 02:59:25;;;;;;;24.00;14.48;;;3.50;79.50;;;;;;6311338;22;20006;-66
2022/03/21 03:01:54;;;;;;;25.85;15.73;;;3.40;80.00;;;;;;6311721;22;20007;-66
2022/03/21 03:04:21;;;;;;;24.25;14.55;;;3.30;80.50;;;;;;6311638;22;20008;-66
2022/03/21 03:06:47;;;;;;;25.13;14.57;;;3.20;80.80;;;;;;6278882;22;20031;-66
2022/03/21 03:09:15;;;;;;;23.27;14.93;;;3.20;80.40;;;;;;6280642;22;20012;-66
2022/03/21 03:11:41;;;;;;;28.67;15.90;;;3.20;80.70;;;;;;6278848;22;20325;-66
2022/03/21 03:14:08;;;;;;;26.13;14.82;;;3.10;80.90;;;;;;6280264;22;20023;-66
2022/03/21 03:16:34;;;;;;;24.98;15.48;;;3.10;81.20;;;;;;6280636;22;19996;-65
2022/03/21 03:19:00;;;;;;;25.85;15.27;;;3.10;81.00;;;;;;6280559;22;20007;-65
2022/03/21 03:21:30;;;;;;;24.00;14.85;;;3.10;80.70;;;;;;6279759;22;20015;-65
2022/03/21 03:23:59;;;;;;;22.42;14.45;;;3.10;80.50;;;;;;6280570;22;20007;-65
2022/03/21 03:26:24;;;;;;;23.73;14.82;;;3.10;80.70;;;;;;6277809;22;20453;-65
2022/03/21 03:28:50;;;;;;;26.45;15.43;;;3.10;80.80;;;;;;6280801;22;20027;-65
2022/03/21 03:31:17;;;;;;;22.38;13.95;;;3.20;80.40;;;;;;6279956;22;20038;-66
2022/03/21 03:33:45;;;;;;;24.50;14.85;;;3.30;80.00;;;;;;6279912;22;19992;-65
2022/03/21 03:36:15;;;;;;;22.75;14.20;;;3.40;79.40;;;;;;6280458;22;20023;-65
2022/03/21 03:38:45;;;;;;;23.80;14.90;;;3.40;79.50;;;;;;6279874;22;20266;-65
2022/03/21 03:41:11;;;;;;;23.85;15.57;;;3.30;80.10;;;;;;6278642;22;20057;-66
2022/03/21 03:43:37;;;;;;;21.75;13.57;;;3.30;80.50;;;;;;6280178;22;20006;-65
2022/03/21 03:46:03;;;;;;;25.98;14.95;;;3.30;80.40;;;;;;6280020;22;20399;-65
2022/03/21 03:48:29;;;;;;;23.35;13.85;;;3.30;80.40;;;;;;6280277;22;20070;-67
2022/03/21 03:50:56;;;;;;;37.92;19.95;;;3.30;80.60;;;;;;6279769;22;20362;-67
2022/03/21 03:53:22;;;;;;;47.33;25.45;;;3.30;80.60;;;;;;6279881;22;20015;-65
2022/03/21 03:55:48;;;;;;;31.08;17.45;;;3.20;80.60;;;;;;6278112;22;20640;-66
2022/03/21 03:58:17;;;;;;;24.20;14.85;;;3.20;81.10;;;;;;6279982;22;20027;-66
2022/03/21 04:00:45;;;;;;;25.83;15.63;;;3.20;81.10;;;;;;6280224;22;20411;-66
2022/03/21 04:06:02;;;;;;;24.88;14.70;;;3.00;81.20;;;;;;6279598;22;19999;-66
2022/03/21 04:08:28;;;;;;;28.17;15.57;;;2.90;81.40;;;;;;6278597;22;20286;-67
2022/03/21 04:10:54;;;;;;;28.33;16.25;;;2.80;82.00;;;;;;6278373;22;20012;-65
2022/03/21 04:13:19;;;;;;;25.83;15.88;;;2.80;82.80;;;;;;6278615;22;20035;-65
2022/03/21 04:15:45;;;;;;;28.73;15.10;;;2.80;81.90;;;;;;6280277;22;20010;-66
2022/03/21 04:18:11;;;;;;;25.23;14.93;;;2.80;81.80;;;;;;6279589;22;20007;-66
2022/03/21 04:20:39;;;;;;;25.25;15.75;;;2.80;82.00;;;;;;6279930;22;20110;-65
2022/03/21 04:23:05;;;;;;;23.10;14.73;;;2.80;82.00;;;;;;6279948;22;20011;-65
2022/03/21 04:25:30;;;;;;;25.38;15.65;;;2.90;82.00;;;;;;6277341;22;20008;-65
2022/03/21 04:27:56;;;;;;;26.75;16.10;;;2.90;81.30;;;;;;6279995;22;20082;-65
2022/03/21 04:30:23;;;;;;;25.17;15.60;;;3.00;81.10;;;;;;6279557;22;20015;-65
2022/03/21 04:32:49;;;;;;;26.40;15.55;;;3.00;81.60;;;;;;6276515;22;20004;-65
2022/03/21 04:35:15;;;;;;;23.98;14.75;;;3.00;80.80;;;;;;6278961;22;20243;-65
2022/03/21 04:37:41;;;;;;;24.92;15.65;;;3.10;80.00;;;;;;6279527;22;20003;-67
2022/03/21 04:40:08;;;;;;;22.20;14.30;;;3.10;79.80;;;;;;6278505;22;20027;-67
2022/03/21 04:42:35;;;;;;;24.23;14.48;;;3.00;80.30;;;;;;6277868;22;20318;-66
2022/03/21 04:45:01;;;;;;;24.58;15.05;;;2.80;81.30;;;;;;6279790;22;20000;-67
2022/03/21 04:47:27;;;;;;;24.70;15.27;;;2.70;81.70;;;;;;6279413;22;20004;-67
2022/03/21 04:49:52;;;;;;;24.45;14.65;;;2.70;82.50;;;;;;6279407;22;20038;-67
2022/03/21 04:52:18;;;;;;;26.25;15.55;;;2.70;82.40;;;;;;6279457;22;19999;-67
2022/03/21 04:54:43;;;;;;;25.17;14.85;;;2.80;81.80;;;;;;6278340;22;20050;-67
2022/03/21 04:57:12;;;;;;;26.05;14.40;;;2.80;81.70;;;;;;6278564;22;20026;-66
2022/03/21 04:59:41;;;;;;;24.10;15.23;;;2.90;80.90;;;;;;6279496;22;20027;-67
2022/03/21 05:02:07;;;;;;;24.05;15.55;;;2.90;81.00;;;;;;6279160;22;20369;-66
2022/03/21 05:04:34;;;;;;;23.40;14.80;;;2.90;80.60;;;;;;6279420;22;20000;-66
2022/03/21 05:07:00;;;;;;;24.70;15.32;;;3.00;80.20;;;;;;6289133;22;20050;-66
2022/03/21 05:09:32;;;;;;;27.42;15.20;;;3.00;79.80;;;;;;6283985;22;20007;-66
2022/03/21 05:11:58;;;;;;;23.92;14.60;;;3.00;79.90;;;;;;6308550;22;20010;-66
2022/03/21 05:14:24;;;;;;;22.63;14.45;;;3.10;79.80;;;;;;6310079;22;19995;-66
2022/03/21 05:16:49;;;;;;;22.42;14.73;;;3.10;79.90;;;;;;6310641;22;20074;-66
2022/03/21 05:19:16;;;;;;;22.45;14.27;;;3.30;79.10;;;;;;6310135;22;20003;-66
2022/03/21 05:21:41;;;;;;;23.48;14.68;;;3.30;78.70;;;;;;6310656;22;20410;-66
2022/03/21 05:32:25;;;;;;;;;;;2.90;79.80;;;;;;6310794;22;20013;-67
2022/03/21 05:37:36;;;;;;;22.95;14.73;;;2.80;79.90;;;;;;6309745;22;20391;-65
2022/03/21 05:42:46;;;;;;;25.45;14.52;;;2.70;80.60;;;;;;6308761;22;20065;-66
2022/03/21 05:45:13;;;;;;;22.58;13.90;;;2.70;80.80;;;;;;6310049;22;20123;-66
2022/03/21 05:50:24;;;;;;;22.75;14.00;;;2.70;80.40;;;;;;6287589;22;20045;-66
2022/03/21 05:52:51;;;;;;;21.55;13.70;;;2.80;80.10;;;;;;6283036;22;20003;-67
2022/03/21 05:55:18;;;;;;;26.23;15.63;;;2.80;80.30;;;;;;6309602;22;20000;-66
2022/03/21 05:57:43;;;;;;;25.73;15.63;;;2.70;80.40;;;;;;6308536;22;20368;-66
2022/03/21 06:00:22;;;;;;;25.95;14.23;;;2.80;80.00;;;;;;6310113;22;20006;-66
2022/03/21 06:02:51;;;;;;;25.38;15.65;;;2.90;79.60;;;;;;6310083;22;20006;-65
2022/03/21 06:05:17;;;;;;;27.52;17.27;;;3.10;79.10;;;;;;6310335;22;20007;-66
2022/03/21 06:07:43;;;;;;;25.08;15.32;;;3.30;78.20;;;;;;6309994;22;20037;-66
2022/03/21 06:10:09;;;;;;;23.17;14.55;;;3.60;76.70;;;;;;6310379;22;20074;-66
2022/03/21 06:12:35;;;;;;;22.85;14.50;;;3.80;76.00;;;;;;6308812;22;20021;-67
2022/03/21 06:15:00;;;;;;;24.13;14.75;;;3.90;75.60;;;;;;6309917;22;20357;-67
2022/03/21 06:17:29;;;;;;;25.48;15.48;;;4.10;75.00;;;;;;6309930;22;20000;-66
2022/03/21 06:19:54;;;;;;;22.10;14.27;;;4.30;74.00;;;;;;6281777;22;19995;-67
2022/03/21 06:22:20;;;;;;;23.30;14.40;;;4.40;73.50;;;;;;6310337;22;20010;-66
2022/03/21 06:24:46;;;;;;;26.35;14.75;;;4.50;73.20;;;;;;6309797;22;20003;-66
2022/03/21 06:27:14;;;;;;;23.33;14.00;;;4.50;73.10;;;;;;6307943;22;20004;-65
2022/03/21 06:29:41;;;;;;;21.92;13.10;;;4.50;73.60;;;;;;6310210;22;20007;-67
2022/03/21 06:32:08;;;;;;;23.65;14.98;;;4.40;73.90;;;;;;6309791;22;20000;-66
2022/03/21 06:34:34;;;;;;;25.27;14.55;;;4.40;74.30;;;;;;6309200;22;20006;-64
2022/03/21 06:37:00;;;;;;;23.10;14.50;;;4.40;74.50;;;;;;6309341;22;20369;-66
2022/03/21 06:39:26;;;;;;;23.42;15.15;;;4.40;74.80;;;;;;6309565;22;20074;-66
2022/03/21 06:41:52;;;;;;;22.02;14.23;;;4.50;74.80;;;;;;6309001;22;20031;-66
2022/03/21 06:44:17;;;;;;;22.00;14.25;;;4.60;74.70;;;;;;6309066;22;20273;-67
2022/03/21 06:46:43;;;;;;;23.77;14.38;;;4.70;74.30;;;;;;6309817;22;20090;-67
2022/03/21 06:49:09;;;;;;;24.95;14.93;;;4.80;73.90;;;;;;6310493;22;20027;-66
2022/03/21 06:51:34;;;;;;;23.88;15.40;;;4.90;73.40;;;;;;6283469;22;20010;-67
2022/03/21 06:54:00;;;;;;;25.08;15.63;;;5.00;73.20;;;;;;6310538;22;20005;-66
2022/03/21 06:56:26;;;;;;;23.45;15.45;;;5.10;73.20;;;;;;6310248;22;19999;-67
2022/03/21 06:58:51;;;;;;;26.52;15.95;;;5.20;73.30;;;;;;6312742;22;20000;-67
2022/03/21 07:01:17;;;;;;;23.05;14.40;;;5.40;72.70;;;;;;6312348;22;20023;-67
2022/03/21 07:03:43;;;;;;;22.02;13.82;;;5.50;73.10;;;;;;6285079;22;20125;-67
2022/03/21 07:06:08;;;;;;;22.67;14.55;;;5.60;72.90;;;;;;6312218;22;20261;-67
2022/03/21 07:08:37;;;;;;;24.38;15.43;;;5.80;72.40;;;;;;6312048;22;20039;-67
2022/03/21 07:11:05;;;;;;;21.38;14.98;;;6.00;72.10;;;;;;6310548;22;20129;-67
2022/03/21 07:13:31;;;;;;;26.35;15.57;;;6.20;71.90;;;;;;6311555;22;20000;-67
2022/03/21 07:15:59;;;;;;;25.38;15.88;;;6.30;71.50;;;;;;6312261;22;20037;-67
2022/03/21 07:18:25;;;;;;;24.58;14.65;;;6.50;71.60;;;;;;6312342;22;20292;-66
2022/03/21 07:20:55;;;;;;;23.45;14.57;;;6.70;71.10;;;;;;6312153;22;20017;-67
2022/03/21 07:23:21;;;;;;;36.17;20.05;;;6.90;70.60;;;;;;6312068;22;20027;-66
2022/03/21 07:25:47;;;;;;;23.90;16.40;;;7.10;71.00;;;;;;6310478;22;20011;-65
2022/03/21 07:28:12;;;;;;;24.02;15.32;;;7.20;70.60;;;;;;6312055;22;19999;-65
2022/03/21 07:30:38;;;;;;;25.25;16.85;;;7.20;70.50;;;;;;6312139;22;20235;-65
2022/03/21 07:33:04;;;;;;;22.73;15.52;;;7.30;70.60;;;;;;6311705;22;20052;-67
2022/03/21 07:35:30;;;;;;;22.63;15.52;;;7.40;70.80;;;;;;6312427;22;19999;-68
2022/03/21 07:37:57;;;;;;;23.98;15.65;;;7.50;71.40;;;;;;6311965;22;20083;-68
2022/03/21 07:40:25;;;;;;;25.00;15.85;;;7.50;71.40;;;;;;6311846;22;20051;-68
2022/03/21 07:42:50;;;;;;;26.67;15.55;;;7.50;71.00;;;;;;6310697;22;20003;-68
2022/03/21 07:48:02;;;;;;;24.55;14.65;;;7.80;70.10;;;;;;6312066;22;20088;-67
2022/03/21 07:50:29;;;;;;;24.20;14.88;;;7.80;70.50;;;;;;6312003;22;20003;-66
2022/03/21 07:52:57;;;;;;;24.90;15.73;;;8.00;70.30;;;;;;6311742;22;20011;-67
2022/03/21 07:55:23;;;;;;;22.27;14.45;;;8.10;70.00;;;;;;6311976;22;20007;-67
2022/03/21 07:57:49;;;;;;;24.13;15.18;;;8.10;69.70;;;;;;6310708;22;20076;-67
2022/03/21 08:00:16;;;;;;;24.33;15.52;;;8.20;69.50;;;;;;6311900;22;20364;-67
2022/03/21 08:02:43;;;;;;;23.90;15.02;;;8.30;70.40;;;;;;6310798;22;19999;-66
2022/03/21 08:05:13;;;;;;;28.52;16.10;;;8.60;69.20;;;;;;6311987;22;20010;-66
2022/03/21 08:07:39;;;;;;;24.15;15.63;;;8.80;68.50;;;;;;6310985;22;20019;-67
2022/03/21 08:10:05;;;;;;;23.33;16.15;;;9.00;68.20;;;;;;6311906;22;20075;-66
2022/03/21 08:12:35;;;;;;;23.67;15.20;;;9.30;67.60;;;;;;6308524;22;20083;-67
2022/03/21 08:15:01;;;;;;;27.77;16.58;;;9.50;67.20;;;;;;6311893;22;20066;-66
2022/03/21 08:17:27;;;;;;;27.33;16.73;;;9.60;67.00;;;;;;6311509;22;20023;-66
2022/03/21 08:19:55;;;;;;;24.55;16.13;;;9.70;67.30;;;;;;6311608;22;20026;-66
2022/03/21 08:22:24;;;;;;;27.15;16.38;;;9.80;67.10;;;;;;6311167;22;20238;-66
2022/03/21 08:24:52;;;;;;;24.65;16.70;;;9.90;67.80;;;;;;6311230;22;20006;-67
2022/03/21 08:27:17;;;;;;;23.48;16.15;;;10.10;67.30;;;;;;6310376;22;20003;-65
2022/03/21 08:29:45;;;;;;;24.58;16.75;;;10.80;66.60;;;;;;6311290;22;20071;-66
2022/03/21 08:32:11;;;;;;;24.80;14.90;;;11.50;64.10;;;;;;6310166;22;20033;-66
2022/03/21 08:34:37;;;;;;;20.95;13.75;;;12.00;63.40;;;;;;6306887;22;19995;-66
2022/03/21 08:37:02;;;;;;;22.75;14.27;;;12.40;62.50;;;;;;6306751;22;19995;-65
2022/03/21 08:39:28;;;;;;;23.30;14.80;;;13.10;61.60;;;;;;6306955;22;20395;-65
2022/03/21 08:41:57;;;;;;;24.67;15.30;;;13.30;60.90;;;;;;6305898;22;20006;-66
2022/03/21 08:44:22;;;;;;;21.60;14.68;;;13.80;59.80;;;;;;6309755;22;20250;-65
2022/03/21 08:46:48;;;;;;;24.15;16.42;;;14.20;58.60;;;;;;6306922;22;20019;-66
2022/03/21 08:49:33;;;;;;;21.63;15.30;;;13.90;58.00;;;;;;6306669;22;20010;-66
2022/03/21 08:52:01;;;;;;;25.30;14.43;;;13.70;59.60;;;;;;6307027;22;20011;-66
2022/03/21 08:54:27;;;;;;;21.15;14.68;;;13.40;60.20;;;;;;6306793;22;20365;-65
2022/03/21 08:56:52;;;;;;;22.92;14.98;;;13.60;59.50;;;;;;6304532;22;20017;-65
2022/03/21 08:59:18;;;;;;;23.80;14.07;;;13.90;60.00;;;;;;6306796;22;19995;-65
2022/03/21 09:01:44;;;;;;;19.60;13.25;;;14.30;58.90;;;;;;6306628;22;20074;-66
2022/03/21 09:04:10;;;;;;;21.08;14.45;;;14.70;58.30;;;;;;6306996;22;20517;-66
2022/03/21 09:06:36;;;;;;;22.85;14.77;;;15.00;56.90;;;;;;6306138;22;20311;-66
2022/03/21 09:09:02;;;;;;;20.40;14.60;;;14.60;57.40;;;;;;6306735;22;20257;-65
2022/03/21 09:11:27;;;;;;;23.95;14.77;;;14.20;57.80;;;;;;6306318;22;20010;-65
2022/03/21 09:13:53;;;;;;;19.52;14.15;;;14.00;57.80;;;;;;6310646;22;19999;-67
2022/03/21 09:16:19;;;;;;;22.30;14.45;;;13.90;58.50;;;;;;6307945;22;20003;-66
2022/03/21 09:18:45;;;;;;;22.10;14.57;;;14.00;59.30;;;;;;6308605;22;20003;-66
2022/03/21 09:21:11;;;;;;;24.17;15.63;;;14.00;58.20;;;;;;6310235;22;19995;-65
2022/03/21 09:23:37;;;;;;;21.05;14.73;;;13.80;58.90;;;;;;6310484;22;20062;-65
2022/03/21 09:26:04;;;;;;;22.77;14.77;;;13.80;59.30;;;;;;6308860;22;20014;-66
2022/03/21 09:28:31;;;;;;;21.42;15.40;;;14.00;58.80;;;;;;6310056;22;20262;-66
2022/03/21 09:30:57;;;;;;;22.30;15.65;;;14.20;58.90;;;;;;6310849;22;20007;-66
2022/03/21 09:33:23;;;;;;;23.02;14.75;;;14.70;58.00;;;;;;6310440;22;20042;-66
2022/03/21 09:35:51;;;;;;;20.60;14.23;;;14.90;57.50;;;;;;6311002;22;20033;-66
2022/03/21 09:38:17;;;;;;;24.40;15.60;;;15.20;57.10;;;;;;6308131;22;20049;-66
2022/03/21 09:40:45;;;;;;;20.42;14.98;;;15.30;56.00;;;;;;6308959;22;20025;-66
2022/03/21 09:43:11;;;;;;;22.55;14.50;;;15.20;55.90;;;;;;6310741;22;19999;-66
2022/03/21 09:45:38;;;;;;;22.15;15.13;;;15.00;57.30;;;;;;6310073;22;20269;-66
2022/03/21 09:48:08;;;;;;;21.85;15.15;;;15.40;56.40;;;;;;6310156;22;20014;-65
2022/03/21 09:50:40;;;;;;;23.17;15.32;;;15.50;56.30;;;;;;6309800;22;20273;-66
2022/03/21 09:53:07;;;;;;;25.33;14.63;;;15.70;56.40;;;;;;6309538;22;20010;-66
2022/03/21 09:55:33;;;;;;;22.45;15.88;;;16.00;55.90;;;;;;6309058;22;19999;-65
2022/03/21 09:57:59;;;;;;;20.77;15.23;;;16.10;55.30;;;;;;6310319;22;19999;-66
2022/03/21 10:00:28;;;;;;;21.35;14.95;;;15.20;56.80;;;;;;6310281;22;20074;-66
2022/03/21 10:02:55;;;;;;;23.23;15.93;;;14.70;57.40;;;;;;6310881;22;20007;-67
2022/03/21 10:05:34;;;;;;;25.13;15.48;;;14.40;58.40;;;;;;6310806;22;20003;-66
2022/03/21 10:08:28;;;;;;;22.77;14.82;;;14.40;58.70;;;;;;6310036;22;20399;-67
2022/03/21 10:11:06;;;;;;;22.02;15.25;;;15.00;58.30;;;;;;6309023;22;20388;-66
2022/03/21 10:13:33;;;;;;;21.50;15.38;;;15.60;56.60;;;;;;6310075;22;20003;-66
2022/03/21 10:16:14;;;;;;;25.60;17.02;;;16.00;56.90;;;;;;6310295;22;20365;-65
2022/03/21 10:19:00;;;;;;;21.92;14.55;;;16.70;55.40;;;;;;6309754;22;20436;-64
2022/03/21 10:21:28;;;;;;;22.50;14.55;;;16.80;54.10;;;;;;6310831;22;19999;-64
2022/03/21 10:24:08;;;;;;;21.65;15.05;;;16.80;55.20;;;;;;6309870;22;20302;-65
2022/03/21 10:26:36;;;;;;;21.83;15.00;;;17.50;53.70;;;;;;6308884;22;20383;-67
2022/03/21 10:29:11;;;;;;;22.75;16.00;;;18.30;52.90;;;;;;6310891;22;20268;-67
2022/03/21 10:31:42;;;;;;;21.23;14.73;;;18.40;52.00;;;;;;6312098;22;19999;-67
2022/03/21 10:34:10;;;;;;;25.70;15.60;;;18.20;52.00;;;;;;6312353;22;20072;-67
2022/03/21 10:36:56;;;;;;;22.60;14.88;;;18.10;51.40;;;;;;6311985;22;20269;-66
2022/03/21 10:39:22;;;;;;;21.25;16.00;;;18.00;52.30;;;;;;6312235;22;20004;-66
2022/03/21 10:42:05;;;;;;;24.25;15.85;;;17.60;52.60;;;;;;6310815;22;20007;-65
2022/03/21 10:44:32;;;;;;;22.30;15.57;;;17.70;53.10;;;;;;6312466;22;20007;-66
2022/03/21 10:47:00;;;;;;;20.55;15.40;;;18.30;51.50;;;;;;6311088;22;20007;-66
2022/03/21 10:49:38;;;;;;;21.85;15.18;;;18.20;51.00;;;;;;6312126;22;20070;-66
2022/03/21 10:52:06;;;;;;;25.98;15.98;;;18.10;51.80;;;;;;6312147;22;20078;-66
2022/03/21 10:54:48;;;;;;;21.98;14.77;;;18.70;50.40;;;;;;6312461;22;20082;-66
2022/03/21 10:57:27;;;;;;;20.88;15.93;;;19.20;50.10;;;;;;6310517;22;20002;-66
2022/03/21 11:00:12;;;;;;;22.15;15.02;;;19.70;49.40;;;;;;6312003;22;19999;-67
2022/03/21 11:02:51;;;;;;;22.17;15.52;;;19.90;48.50;;;;;;6312486;22;20003;-66
2022/03/21 11:05:18;;;;;;;23.80;16.17;;;19.10;49.00;;;;;;6312401;22;20003;-66
2022/03/21 11:07:45;;;;;;;26.17;16.30;;;18.60;49.70;;;;;;6311681;22;20042;-66
2022/03/21 11:10:11;;;;;;;24.20;16.70;;;18.00;50.30;;;;;;6311826;22;20010;-65
2022/03/21 11:12:39;;;;;;;24.15;15.57;;;17.30;51.30;;;;;;6310112;22;20007;-66
2022/03/21 11:15:06;;;;;;;24.50;16.55;;;17.00;52.20;;;;;;6312398;22;20000;-66
2022/03/21 11:17:32;;;;;;;22.83;15.90;;;17.10;52.20;;;;;;6311723;22;19999;-66
2022/03/21 11:20:01;;;;;;;23.48;16.67;;;17.40;51.40;;;;;;6311269;22;20061;-66
2022/03/21 11:22:28;;;;;;;25.00;17.40;;;17.50;50.70;;;;;;6311501;22;20365;-67
2022/03/21 11:24:54;;;;;;;25.40;16.75;;;17.70;50.40;;;;;;6312070;22;20034;-66
2022/03/21 11:27:36;;;;;;;24.38;16.52;;;17.80;51.00;;;;;;6310636;22;20025;-66
2022/03/21 11:30:14;;;;;;;25.58;16.30;;;17.80;50.20;;;;;;6311939;22;19999;-66
2022/03/21 11:33:09;;;;;;;24.75;16.27;;;17.70;51.20;;;;;;6311309;22;20368;-66
2022/03/21 11:35:37;;;;;;;22.50;15.90;;;18.60;50.40;;;;;;6312104;22;20003;-66
2022/03/21 11:38:23;;;;;;;22.40;15.20;;;18.60;49.60;;;;;;6311709;22;20033;-66
2022/03/21 11:40:50;;;;;;;25.42;15.70;;;19.10;49.70;;;;;;6309283;22;20090;-66
2022/03/21 11:43:17;;;;;;;20.35;14.35;;;19.30;47.90;;;;;;6311306;22;20391;-66
2022/03/21 11:45:43;;;;;;;27.08;15.88;;;19.30;48.80;;;;;;6312017;22;20078;-65
2022/03/21 11:48:17;;;;;;;22.92;14.95;;;19.90;47.50;;;;;;6311324;22;20031;-66
2022/03/21 11:50:47;;;;;;;22.48;14.82;;;20.40;46.90;;;;;;6311977;22;20011;-67
2022/03/21 11:53:15;;;;;;;23.45;15.02;;;20.30;45.30;;;;;;6310911;22;20010;-66
2022/03/21 11:55:41;;;;;;;27.73;15.70;;;20.20;45.30;;;;;;6310484;22;19995;-67
2022/03/21 11:58:39;;;;;;;21.20;15.00;;;20.20;46.40;;;;;;6311577;22;20086;-67
2022/03/21 12:01:13;;;;;;;26.75;15.50;;;19.70;47.10;;;;;;6310673;22;20003;-65
2022/03/21 12:03:41;;;;;;;;;;;19.70;48.10;;;;;;6312404;22;20013;-67
2022/03/21 12:06:32;;;;;;;23.58;15.35;;;19.70;47.90;;;;;;6311885;22;19899;-67
2022/03/21 12:09:09;;;;;;;22.67;15.48;;;19.80;46.20;;;;;;6284180;22;20408;-67
2022/03/21 12:11:48;;;;;;;23.65;15.43;;;19.80;47.20;;;;;;6309312;22;20011;-66
2022/03/21 12:14:22;;;;;;;27.55;15.95;;;19.60;47.90;;;;;;6311095;22;19995;-66
2022/03/21 12:17:12;;;;;;;25.67;16.40;;;19.60;47.40;;;;;;6311429;22;19999;-66
2022/03/21 12:20:01;;;;;;;27.05;17.02;;;19.50;48.60;;;;;;6311433;22;20256;-66
2022/03/21 12:22:28;;;;;;;23.20;15.73;;;19.60;48.10;;;;;;6309968;22;20003;-66
2022/03/21 12:24:56;;;;;;;25.55;15.07;;;19.30;47.90;;;;;;6310307;22;20438;-66
2022/03/21 12:27:33;;;;;;;20.75;12.82;;;19.10;47.80;;;;;;6309624;22;20003;-66
2022/03/21 12:30:21;;;;;;;23.50;14.35;;;19.20;48.70;;;;;;6311196;22;20003;-65
2022/03/21 12:32:53;;;;;;;29.45;15.80;;;19.70;48.10;;;;;;6310686;22;19999;-66
2022/03/21 12:35:45;;;;;;;26.52;15.25;;;19.60;47.20;;;;;;6310802;22;20262;-66
2022/03/21 12:38:20;;;;;;;25.98;14.60;;;19.60;47.80;;;;;;6305218;22;20006;-66
2022/03/21 12:40:50;;;;;;;25.85;15.43;;;19.70;47.80;;;;;;6309842;22;19995;-65
2022/03/21 12:43:17;;;;;;;24.52;15.02;;;19.60;47.00;;;;;;6310254;22;20034;-65
2022/03/21 12:45:44;;;;;;;23.33;15.23;;;19.30;47.70;;;;;;6311519;22;20258;-66
2022/03/21 12:48:17;;;;;;;22.75;14.95;;;19.50;46.70;;;;;;6310391;22;20265;-66
2022/03/21 12:50:47;;;;;;;21.63;14.48;;;19.80;48.10;;;;;;6310138;22;20265;-65
2022/03/21 12:53:21;;;;;;;23.40;14.48;;;19.40;47.60;;;;;;6309542;22;19999;-66
2022/03/21 12:55:59;;;;;;;25.65;14.70;;;19.10;48.30;;;;;;6309287;22;20394;-66
2022/03/21 12:58:25;;;;;;;20.98;13.70;;;19.30;49.20;;;;;;6309955;22;20009;-66
2022/03/21 13:00:50;;;;;;;23.90;13.32;;;19.30;47.80;;;;;;6310850;22;20023;-66
2022/03/21 13:03:18;;;;;;;21.40;12.10;;;19.00;47.40;;;;;;6309556;22;20003;-66
2022/03/21 13:11:27;;;;;;;20.10;11.90;;;18.50;47.00;;;;;;6309203;22;20025;-65